• Join FlightAware (Why Join?)
  • Login
  • US Flag 
12:18PM EDT


 

Airport Tracker/Info


-or-


 

Live Flight TrackerFlight Track Log ✈ FLG3709 ✈ 19-Apr-2013 ✈ KPIT - KCVG

Flight Track Log - Related Links

Times and Time Zones

All times are in EDT time to prevent confusion due to time zone crossing. See the FLG3709 flight status page for this flight to view local times or setup timezone preferences in your user account.

Time Position Orientation Groundspeed Altitude Reporting Facility
EDT Latitude Longitude Course Direction KTS MPH feet Rate Location/Type
07:17AM 40.5144 -80.1517 270° West 244 281 3,000  Level Cleveland Center
07:18AM 40.5500 -80.1869 323° Northwest 206 237 5,100 2,100 Climbing Cleveland Center
07:19AM 40.5294 -80.2553 248° West 206 237 7,200 2,100 Climbing Cleveland Center
07:20AM 40.4667 -80.6591 270° West  Level FlightAware Approximate
07:20AM 40.4983 -80.3319 242° Southwest 218 251 9,400  Level Cleveland Center
07:21AM 40.4667 -80.7703 270° West  Level FlightAware Approximate
07:21AM 40.4986 -80.4383 270° West 241 277 11,300  Level Cleveland Center
07:22AM 40.4667 -80.8815 270° West  Level FlightAware Approximate
07:22AM 40.4967 -80.5531 269° West 282 325 12,700  Level Cleveland Center
07:23AM 40.4944 -80.6758 269° West 315 362 14,300 1,620 Climbing Cleveland Center
07:24AM 40.4922 -80.7933 269° West 330 380 16,000 1,680 Climbing Cleveland Center
07:25AM 40.4897 -80.9133 268° West 330 380 17,700 1,680 Climbing Cleveland Center
07:27AM 40.4819 -81.1258 267° West 310 357 20,900 1,440 Climbing Indianapolis Center
07:28AM 40.4808 -81.2414 269° West 314 361 21,900 540 Climbing Indianapolis Center
07:29AM 40.4769 -81.3631 268° West 327 376 22,100 540 Climbing Indianapolis Center
07:30AM 40.4747 -81.4881 269° West 338 389 23,000 540 Climbing Indianapolis Center
07:31AM 40.4486 -81.6086 254° West 343 395 23,200 420 Climbing Indianapolis Center
07:32AM 40.4147 -81.7275 250° West 343 395 23,900 780 Climbing Indianapolis Center
07:33AM 40.3789 -81.8439 248° West 340 391 24,800 840 Climbing Indianapolis Center
07:34AM 40.3447 -81.9564 248° West 332 382 25,700 780 Climbing Indianapolis Center
07:35AM 40.3106 -82.0697 248° West 331 381 26,400 540 Climbing Indianapolis Center
07:36AM 40.2758 -82.1839 248° West 333 383 26,900 480 Climbing Indianapolis Center
07:37AM 40.2372 -82.3094 248° West 341 392 27,400 480 Climbing Indianapolis Center
07:38AM 40.2011 -82.4278 248° West 346 398 27,900  Climbing Indianapolis Center
07:39AM 40.1633 -82.5464 247° West 351 404 27,500 -840 Descending Indianapolis Center
07:40AM 40.1222 -82.6581 244° Southwest 340 391 26,300 -1,320 Descending Indianapolis Center
07:41AM 40.0792 -82.7625 242° Southwest 325 374 24,900 -1,380 Descending Indianapolis Center
07:42AM 40.0361 -82.8625 241° Southwest 314 361 23,500 -1,380 Descending Indianapolis Center
07:43AM 39.9931 -82.9658 241° Southwest 321 369 22,100 -780 Descending Indianapolis Center
07:44AM 39.9506 -83.0678 241° Southwest 319 367 22,000 -60 Descending Indianapolis Center
07:45AM 39.9086 -83.1678 241° Southwest 313 360 22,000 -60 Level Indianapolis Center
07:46AM 39.8656 -83.2706 241° Southwest 318 366 21,900 -840 Descending Indianapolis Center
07:47AM 39.8225 -83.3733 241° Southwest 318 366 20,400 -1,500 Descending Indianapolis Center
07:48AM 39.7825 -83.4650 240° Southwest 281 323 18,900 -1,620 Descending Indianapolis Center
07:49AM 39.7464 -83.5500 241° Southwest 263 303 17,200 -1,560 Descending Indianapolis Center
07:50AM 39.7103 -83.6358 241° Southwest 266 306 15,800 -1,380 Descending Indianapolis Center
07:51AM 39.6731 -83.7217 241° Southwest 268 308 14,500 -1,140 Descending Indianapolis Center
07:52AM 39.6375 -83.8044 241° Southwest 262 302 13,500 -1,020 Descending Indianapolis Center
07:53AM 39.6011 -83.8889 241° Southwest 265 305 12,500 -1,020 Descending Indianapolis Center
07:55AM 39.5533 -83.9647 231° Southwest 267 307 11,500 -840 Descending Indianapolis Center
07:56AM 39.5019 -84.0361 227° Southwest 269 310 10,900 -300 Descending Indianapolis Center
07:57AM 39.4508 -84.1075 227° Southwest 268 308 10,900  Level Indianapolis Center
07:58AM 39.4008 -84.1756 226° Southwest 261 300 11,000 -840 Climbing Indianapolis Center
07:59AM 39.3294 -84.2114 201° Southwest 237 273 9,200 -1,800 Descending Indianapolis Center
08:00AM 39.2722 -84.2442 204° Southwest 228 262 7,400 -1,620 Descending Indianapolis Center
08:01AM 39.2214 -84.2825 210° Southwest 220 253 6,000 -720 Descending Indianapolis Center
08:02AM 39.1733 -84.3281 216° Southwest 214 246 6,000 -540 Level Indianapolis Center
08:03AM 39.1272 -84.3700 215° Southwest 208 239 5,000 -1,140 Descending Indianapolis Center
08:03AM 39.0833 -84.4000 208° Southwest 190 219 4,000 -840 Descending Cincinnati TRACON
08:04AM 39.0500 -84.4333 218° Southwest 191 220 3,600 -420 Descending Cincinnati TRACON